Pierpont, Ohio
Current Conditions -  °F | °C
As of 10:12 PM on Thursday 27 Nov 2014 (Local Time) from KHZY Reporting Station
Light Snow Light Snow  
Wind Chill: 21°   Ceiling: 3000
Heat Index: 29°   Visibility: 8mi
Dew Point: 23°   Wind: 8mph
Humidity: 78%   Direction: 330°NNW
Pressure: 30.2"   Gusts: NA
Location:  41.75°N, 80.57°W
Report Text: KHZY 280312Z AUTO 33007KT 8SM -SN BKN030 BKN036 OVC050 M02/M05 A3020 RMK AO2 P0000 T10171050
Loading
Personal Weather Stations






























Interactive Weather Map New forecast layout! Learn more

10-Day Weather Forecast

Advertisements
Track Severe Weather on mobile